Roscoe, Pennsylvania
Current Conditions -  °F | °C
As of 6:53 PM on Sunday 25 Jan 2015 (Local Time) from KAGC Reporting Station
Light Snow Light Snow  
Wind Chill: 27°   Ceiling: 200
Heat Index: 32°   Visibility: 0.75mi
Dew Point: 29°   Wind: 5mph
Humidity: 88%   Direction: NA
Pressure: 29.78"   Gusts: NA
Location:  40.08°N, 79.87°W
Report Text: KAGC 252353Z VRB04KT 3/4SM R28/5000VP6000FT -SN BR VV002 00/M02 A2978 RMK AO2 SLP099 P0002 60004 I6000 T00001017 10017 20000 53007
Loading
Personal Weather Stations






























Interactive Weather Map New forecast layout! Learn more

10-Day Weather Forecast

Advertisements
Track Severe Weather on mobile